1890 Hurricane NOT_NAMED (1890282N21286)


IBTrACS version v04r00. Visit IBTrACS website for data access.
Please direct all questions to the IBTrACS Q and A forum

Storm track - Intensity - Wind Radii - Intensity Data - Source Data - All data

Summary Information

Storm ID 1890282N21286
Start Oct 8 18Z
Max Intensity 100 kt (Oct 16 06Z), 963 mb (Oct 16 18Z)
End Oct 19 06Z
ATCF IDs
Track status Best track data.

Storm track plot

Map of storm track

Intensity plots

Map of storm track

Radial wind information

No radial wind information for this storm


Position and Intensity Table

BASIN ISO_TIME_________ NATURE LAT LON MLC WIND MLC PRES
degrees north degrees east kts mb
NA 1890-10-08 18:00:00 TS 20.50 -74.00 35
NA 21:00:00 TS 20.71 -74.05 35
NA 1890-10-09 00:00:00 TS 20.90 -74.10 35
NA 03:00:00 TS 21.06 -74.15 35
NA 06:00:00 TS 21.20 -74.20 35
NA 09:00:00 TS 21.35 -74.26 35
NA 12:00:00 TS 21.50 -74.30 35
NA 15:00:00 TS 21.65 -74.29 35
NA 18:00:00 TS 21.80 -74.30 35
NA 21:00:00 TS 21.96 -74.39 35
NA 1890-10-10 00:00:00 TS 22.10 -74.50 35
NA 03:00:00 TS 22.20 -74.55 35
NA 06:00:00 TS 22.30 -74.60 35
NA 09:00:00 TS 22.45 -74.70 35
NA 12:00:00 TS 22.60 -74.80 35
NA 15:00:00 TS 22.71 -74.84 35
NA 18:00:00 TS 22.80 -74.90 35
NA 21:00:00 TS 22.90 -75.04 35
NA 1890-10-11 00:00:00 TS 23.00 -75.20 35
NA 03:00:00 TS 23.10 -75.31 35
NA 06:00:00 TS 23.20 -75.40 35
NA 09:00:00 TS 23.30 -75.50 35
NA 12:00:00 TS 23.40 -75.60 35
NA 15:00:00 TS 23.49 -75.71 35
NA 18:00:00 TS 23.60 -75.80 35
NA 21:00:00 TS 23.74 -75.82 35
NA 1890-10-12 00:00:00 TS 23.90 -75.80 35
NA 03:00:00 TS 24.05 -75.77 35
NA 06:00:00 TS 24.20 -75.70 35
NA 09:00:00 TS 24.36 -75.56 35
NA 12:00:00 TS 24.50 -75.40 35
NA 15:00:00 TS 24.61 -75.28 35
NA 18:00:00 TS 24.70 -75.20 35
NA 21:00:00 TS 24.81 -75.14 35
NA 1890-10-13 00:00:00 TS 24.90 -75.10 35
NA 03:00:00 TS 24.96 -75.05 37
NA 06:00:00 TS 25.00 -75.00 40
NA 09:00:00 TS 25.05 -74.95 42
NA 12:00:00 TS 25.10 -74.90 45
NA 15:00:00 TS 25.14 -74.89 47
NA 18:00:00 TS 25.20 -74.80 50
NA 21:00:00 TS 25.30 -74.50 55
NA 1890-10-14 00:00:00 TS 25.40 -74.10 60
NA 03:00:00 TS 25.45 -73.75 65
NA 06:00:00 TS 25.50 -73.40 70
NA 09:00:00 TS 25.60 -73.05 72
NA 12:00:00 TS 25.70 -72.70 75
NA 15:00:00 TS 25.77 -72.33 77
NA 18:00:00 TS 25.80 -72.00 80
NA 21:00:00 TS 25.81 -71.73 82
NA 1890-10-15 00:00:00 TS 25.80 -71.50 85
NA 03:00:00 TS 25.80 -71.25 87
NA 06:00:00 TS 25.80 -71.00 90
NA 09:00:00 TS 25.79 -70.75 90
NA 12:00:00 TS 25.80 -70.50 90
NA 15:00:00 TS 25.85 -70.24 90
NA 18:00:00 TS 25.90 -70.00 90
NA 21:00:00 TS 25.91 -69.79 90
NA 1890-10-16 00:00:00 TS 25.90 -69.60 90
NA 03:00:00 TS 25.90 -69.40 95
NA 06:00:00 NR 25.90 -69.20 100
NA 09:00:00 NR 25.90 -68.99 100
NA 12:00:00 NR 25.90 -68.80 100
NA 15:00:00 NR 25.82 -68.83 100
NA 18:00:00 NR 25.90 -68.50 100 963
NA 21:00:00 NR 26.37 -67.28 100
NA 1890-10-17 00:00:00 NR 27.00 -65.70 100
NA 03:00:00 NR 27.55 -64.24 100
NA 06:00:00 NR 28.10 -63.00 100
NA 09:00:00 NR 28.66 -62.24 95
NA 12:00:00 TS 29.20 -61.70 90
NA 15:00:00 TS 29.60 -61.14 85
NA 18:00:00 TS 30.20 -60.40 80
NA 21:00:00 TS 31.30 -59.20 75
NA 1890-10-18 00:00:00 TS 32.60 -57.80 70
NA 03:00:00 TS 33.75 -56.47 65
NA 06:00:00 TS 34.90 -55.20 60
NA 09:00:00 TS 36.10 -54.02 55
NA 12:00:00 TS 37.30 -52.90 50
NA 15:00:00 TS 38.37 -51.80 45
NA 18:00:00 TS 39.60 -50.60 40
NA 21:00:00 TS 41.21 -49.06 40
NA 1890-10-19 00:00:00 TS 43.00 -47.50 40
NA 03:00:00 TS 44.77 -46.25 37
NA 06:00:00 TS 46.50 -45.20 35

Source Information

Agency Information
USA
TOKYO
CMA
HKO
NEWDELHI
REUNION
BOM
NADI
WELLINGTON
DS824
TD9636
TD9635
NEUMANN
MLC

All available IBTrACS Data

SEASON BASIN SUBBASIN ISO_TIME_________ NATURE LAT LON DIST2LAND LANDFALL IFLAG USA SSHS MLC LAT MLC LON MLC CLASS MLC WIND MLC PRES STORM SPEED STORM DIR
Year degrees north degrees east km km 1 degrees north degrees east kts mb kts degrees
1890 NA NA 1890-10-08 18:00:00 TS 20.50 -74.00 35 35 _____________O -1 20.50 -74.00 TS 35 4 350
1890 NA NA 21:00:00 TS 20.71 -74.05 45 43 _____________P -1 20.71 -74.05 TS 35 4 347
1890 NA NA 1890-10-09 00:00:00 TS 20.90 -74.10 43 41 _____________O -1 20.90 -74.10 TS 35 4 345
1890 NA NA 03:00:00 TS 21.06 -74.15 51 51 _____________P -1 21.06 -74.15 TS 35 3 343
1890 NA NA 06:00:00 TS 21.20 -74.20 53 53 _____________O -1 21.20 -74.20 TS 35 3 341
1890 NA NA 09:00:00 TS 21.35 -74.26 70 70 _____________P -1 21.35 -74.26 TS 35 3 343
1890 NA NA 12:00:00 TS 21.50 -74.30 76 76 _____________O -1 21.50 -74.30 TS 35 3 355
1890 NA NA 15:00:00 TS 21.65 -74.29 83 83 _____________P -1 21.65 -74.29 TS 35 3 0
1890 NA NA 18:00:00 TS 21.80 -74.30 99 99 _____________O -1 21.80 -74.30 TS 35 3 345
1890 NA NA 21:00:00 TS 21.96 -74.39 123 123 _____________P -1 21.96 -74.39 TS 35 4 329
1890 NA NA 1890-10-10 00:00:00 TS 22.10 -74.50 139 139 _____________O -1 22.10 -74.50 TS 35 3 328
1890 NA NA 03:00:00 TS 22.20 -74.55 154 154 _____________P -1 22.20 -74.55 TS 35 2 335
1890 NA NA 06:00:00 TS 22.30 -74.60 163 163 _____________O -1 22.30 -74.60 TS 35 3 331
1890 NA NA 09:00:00 TS 22.45 -74.70 187 186 _____________P -1 22.45 -74.70 TS 35 4 329
1890 NA NA 12:00:00 TS 22.60 -74.80 197 197 _____________O -1 22.60 -74.80 TS 35 3 333
1890 NA NA 15:00:00 TS 22.71 -74.84 207 203 _____________P -1 22.71 -74.84 TS 35 2 335
1890 NA NA 18:00:00 TS 22.80 -74.90 213 210 _____________O -1 22.80 -74.90 TS 35 3 316
1890 NA NA 21:00:00 TS 22.90 -75.04 221 218 _____________P -1 22.90 -75.04 TS 35 3 306
1890 NA NA 1890-10-11 00:00:00 TS 23.00 -75.20 226 221 _____________O -1 23.00 -75.20 TS 35 3 309
1890 NA NA 03:00:00 TS 23.10 -75.31 231 227 _____________P -1 23.10 -75.31 TS 35 3 317
1890 NA NA 06:00:00 TS 23.20 -75.40 238 238 _____________O -1 23.20 -75.40 TS 35 3 318
1890 NA NA 09:00:00 TS 23.30 -75.50 242 242 _____________P -1 23.30 -75.50 TS 35 3 317
1890 NA NA 12:00:00 TS 23.40 -75.60 244 231 _____________O -1 23.40 -75.60 TS 35 3 314
1890 NA NA 15:00:00 TS 23.49 -75.71 231 217 _____________P -1 23.49 -75.71 TS 35 3 318
1890 NA NA 18:00:00 TS 23.60 -75.80 217 212 _____________O -1 23.60 -75.80 TS 35 3 339
1890 NA NA 21:00:00 TS 23.74 -75.82 212 203 _____________P -1 23.74 -75.82 TS 35 3 0
1890 NA NA 1890-10-12 00:00:00 TS 23.90 -75.80 203 200 _____________O -1 23.90 -75.80 TS 35 3 6
1890 NA NA 03:00:00 TS 24.05 -75.77 200 197 _____________P -1 24.05 -75.77 TS 35 3 16
1890 NA NA 06:00:00 TS 24.20 -75.70 205 203 _____________O -1 24.20 -75.70 TS 35 4 33
1890 NA NA 09:00:00 TS 24.36 -75.56 212 212 _____________P -1 24.36 -75.56 TS 35 4 42
1890 NA NA 12:00:00 TS 24.50 -75.40 232 232 _____________O -1 24.50 -75.40 TS 35 4 45
1890 NA NA 15:00:00 TS 24.61 -75.28 242 242 _____________P -1 24.61 -75.28 TS 35 3 42
1890 NA NA 18:00:00 TS 24.70 -75.20 253 253 _____________O -1 24.70 -75.20 TS 35 2 34
1890 NA NA 21:00:00 TS 24.81 -75.14 264 264 _____________P -1 24.81 -75.14 TS 35 2 25
1890 NA NA 1890-10-13 00:00:00 TS 24.90 -75.10 266 266 _____________O -1 24.90 -75.10 TS 35 2 27
1890 NA NA 03:00:00 TS 24.96 -75.05 278 278 _____________P -1 24.96 -75.05 TS 37 1 40
1890 NA NA 06:00:00 TS 25.00 -75.00 278 278 _____________O -1 25.00 -75.00 TS 40 1 42
1890 NA NA 09:00:00 TS 25.05 -74.95 290 290 _____________P -1 25.05 -74.95 TS 42 1 40
1890 NA NA 12:00:00 TS 25.10 -74.90 290 290 _____________O -1 25.10 -74.90 TS 45 1 28
1890 NA NA 15:00:00 TS 25.14 -74.89 290 290 _____________P -1 25.14 -74.89 TS 47 1 40
1890 NA NA 18:00:00 TS 25.20 -74.80 302 302 _____________O -1 25.20 -74.80 TS 50 4 66
1890 NA NA 21:00:00 TS 25.30 -74.50 334 334 _____________P -1 25.30 -74.50 TS 55 7 72
1890 NA NA 1890-10-14 00:00:00 TS 25.40 -74.10 376 376 _____________O -1 25.40 -74.10 TS 60 7 77
1890 NA NA 03:00:00 TS 25.45 -73.75 415 415 _____________P -1 25.45 -73.75 TS 65 6 81
1890 NA NA 06:00:00 TS 25.50 -73.40 447 447 _____________O -1 25.50 -73.40 HU 70 6 77
1890 NA NA 09:00:00 TS 25.60 -73.05 479 479 _____________P -1 25.60 -73.05 HU 72 7 72
1890 NA NA 12:00:00 TS 25.70 -72.70 503 503 _____________O -1 25.70 -72.70 HU 75 7 76
1890 NA NA 15:00:00 TS 25.77 -72.33 519 519 _____________P -1 25.77 -72.33 HU 77 6 81
1890 NA NA 18:00:00 TS 25.80 -72.00 524 524 _____________O -1 25.80 -72.00 HU 80 5 86
1890 NA NA 21:00:00 TS 25.81 -71.73 530 530 _____________P -1 25.81 -71.73 HU 82 5 90
1890 NA NA 1890-10-15 00:00:00 TS 25.80 -71.50 536 536 _____________O -1 25.80 -71.50 HU 85 4 91
1890 NA NA 03:00:00 TS 25.80 -71.25 545 545 _____________P -1 25.80 -71.25 HU 87 5 90
1890 NA NA 06:00:00 TS 25.80 -71.00 553 553 _____________O -1 25.80 -71.00 HU 90 5 91
1890 NA NA 09:00:00 TS 25.79 -70.75 565 565 _____________P -1 25.79 -70.75 HU 90 5 90
1890 NA NA 12:00:00 TS 25.80 -70.50 573 573 _____________O -1 25.80 -70.50 HU 90 5 83
1890 NA NA 15:00:00 TS 25.85 -70.24 587 587 _____________P -1 25.85 -70.24 HU 90 5 77
1890 NA NA 18:00:00 TS 25.90 -70.00 607 607 _____________O -1 25.90 -70.00 HU 90 4 82
1890 NA NA 21:00:00 TS 25.91 -69.79 618 618 _____________P -1 25.91 -69.79 HU 90 4 90
1890 NA NA 1890-10-16 00:00:00 TS 25.90 -69.60 629 629 _____________O -1 25.90 -69.60 HU 90 4 91
1890 NA NA 03:00:00 TS 25.90 -69.40 640 640 _____________P -1 25.90 -69.40 HU 95 4 90
1890 NA NA 06:00:00 NR 25.90 -69.20 652 652 _____________O -1 25.90 -69.20 MH 100 4 90
1890 NA NA 09:00:00 NR 25.90 -68.99 664 664 _____________P -1 25.90 -68.99 MH 100 4 90
1890 NA NA 12:00:00 NR 25.90 -68.80 677 668 _____________O -1 25.90 -68.80 MH 100 2 119
1890 NA NA 15:00:00 NR 25.82 -68.83 668 668 _____________P -1 25.82 -68.83 MH 100 3 90
1890 NA NA 18:00:00 NR 25.90 -68.50 697 697 _____________O -1 25.90 -68.50 MH 100 963 15 68
1890 NA NA 21:00:00 NR 26.37 -67.28 808 808 _____________P -1 26.37 -67.28 MH 100 27 66
1890 NA NA 1890-10-17 00:00:00 NR 27.00 -65.70 935 935 _____________O -1 27.00 -65.70 MH 100 30 66
1890 NA NA 03:00:00 NR 27.55 -64.24 1038 1038 _____________P -1 27.55 -64.24 MH 100 26 65
1890 NA NA 06:00:00 NR 28.10 -63.00 1116 1116 _____________O -1 28.10 -63.00 MH 100 21 58
1890 NA NA 09:00:00 NR 28.66 -62.24 1201 1201 _____________P -1 28.66 -62.24 MH 95 16 46
1890 NA NA 12:00:00 TS 29.20 -61.70 1270 1270 _____________O -1 29.20 -61.70 HU 90 14 45
1890 NA NA 15:00:00 TS 29.60 -61.14 1331 1331 _____________P -1 29.60 -61.14 HU 85 15 49
1890 NA NA 18:00:00 TS 30.20 -60.40 1419 1419 _____________O -1 30.20 -60.40 HU 80 24 45
1890 NA NA 21:00:00 TS 31.30 -59.20 1460 1379 _____________P -1 31.30 -59.20 HU 75 33 43
1890 NA NA 1890-10-18 00:00:00 TS 32.60 -57.80 1377 1329 _____________O -1 32.60 -57.80 HU 70 34 43
1890 NA NA 03:00:00 TS 33.75 -56.47 1329 1257 _____________P -1 33.75 -56.47 HU 65 32 43
1890 NA NA 06:00:00 TS 34.90 -55.20 1249 1175 _____________O -1 34.90 -55.20 TS 60 31 41
1890 NA NA 09:00:00 TS 36.10 -54.02 1168 1045 _____________P -1 36.10 -54.02 TS 55 30 38
1890 NA NA 12:00:00 TS 37.30 -52.90 1034 929 _____________O -1 37.30 -52.90 TS 50 29 38
1890 NA NA 15:00:00 TS 38.37 -51.80 919 814 _____________P -1 38.37 -51.80 TS 45 29 38
1890 NA NA 18:00:00 TS 39.60 -50.60 806 693 _____________O -1 39.60 -50.60 TS 40 35 37
1890 NA NA 21:00:00 TS 41.21 -49.06 683 602 _____________P -1 41.21 -49.06 TS 40 41 34
1890 NA NA 1890-10-19 00:00:00 TS 43.00 -47.50 600 565 _____________O -1 43.00 -47.50 TS 40 41 30
1890 NA NA 03:00:00 TS 44.77 -46.25 562 559 _____________P -1 44.77 -46.25 TS 37 39 25
1890 NA NA 06:00:00 TS 46.50 -45.20 569 _____________O -1 46.50 -45.20 TS 35 38 23